createdAt,value
2022-08-03T00:00:27.689Z,19.20
2022-08-03T00:02:54.415Z,19.20
2022-08-03T00:05:21.162Z,19.10
2022-08-03T00:07:48.633Z,19.30
2022-08-03T00:10:16.397Z,19.10
2022-08-03T00:12:43.001Z,19.00
2022-08-03T00:15:15.040Z,17.70
2022-08-03T00:17:53.582Z,19.00
2022-08-03T00:20:21.782Z,19.00
2022-08-03T00:22:48.908Z,19.00
2022-08-03T00:25:15.643Z,19.00
2022-08-03T00:27:42.231Z,19.00
2022-08-03T00:30:09.465Z,18.90
2022-08-03T00:32:36.076Z,18.90
2022-08-03T00:35:08.413Z,18.90
2022-08-03T00:37:41.282Z,20.50
2022-08-03T00:40:13.400Z,18.80
2022-08-03T00:43:10.569Z,18.80
2022-08-03T00:45:39.877Z,18.70
2022-08-03T00:48:29.492Z,18.70
2022-08-03T00:50:54.982Z,18.70
2022-08-03T00:53:22.096Z,18.70
2022-08-03T00:55:48.758Z,18.60
2022-08-03T00:58:15.401Z,18.60
2022-08-03T01:00:42.706Z,18.60
2022-08-03T01:03:10.869Z,18.50
2022-08-03T01:05:52.234Z,18.50
2022-08-03T01:08:32.748Z,18.50
2022-08-03T01:11:10.212Z,18.40
2022-08-03T01:14:19.007Z,18.50
2022-08-03T01:16:59.397Z,18.40
2022-08-03T01:19:54.357Z,18.30
2022-08-03T01:22:52.248Z,18.30
2022-08-03T01:25:36.859Z,18.30
2022-08-03T01:28:58.142Z,18.20
2022-08-03T01:31:32.394Z,18.20
2022-08-03T01:34:03.574Z,18.20
2022-08-03T01:36:47.960Z,18.10
2022-08-03T01:39:17.111Z,18.10
2022-08-03T01:41:59.229Z,18.00
2022-08-03T01:44:31.089Z,18.00
2022-08-03T01:47:02.274Z,18.00
2022-08-03T01:49:31.953Z,18.00
2022-08-03T01:52:04.875Z,17.90
2022-08-03T01:54:40.328Z,17.90
2022-08-03T01:57:07.712Z,17.90
2022-08-03T01:59:35.774Z,17.90
2022-08-03T02:02:16.013Z,17.80
2022-08-03T02:04:53.960Z,17.80
2022-08-03T02:07:20.829Z,17.90
2022-08-03T02:09:51.527Z,17.80
2022-08-03T02:12:19.742Z,17.90
2022-08-03T02:14:48.591Z,17.70
2022-08-03T02:17:16.197Z,17.70
2022-08-03T02:19:43.784Z,17.70
2022-08-03T02:22:12.722Z,17.70
2022-08-03T02:24:39.939Z,17.80
2022-08-03T02:27:14.909Z,17.70
2022-08-03T02:29:46.479Z,17.60
2022-08-03T02:32:17.374Z,17.70
2022-08-03T02:34:47.612Z,17.60
2022-08-03T02:37:16.990Z,17.70
2022-08-03T02:39:44.683Z,17.50
2022-08-03T02:42:14.251Z,17.50
2022-08-03T02:44:47.526Z,17.50
2022-08-03T02:47:15.618Z,17.60
2022-08-03T02:49:51.492Z,17.50
2022-08-03T02:52:24.130Z,17.70
2022-08-03T02:54:54.830Z,17.50
2022-08-03T02:57:23.195Z,17.60
2022-08-03T02:59:51.529Z,17.50
2022-08-03T03:02:19.547Z,17.50
2022-08-03T03:05:01.359Z,17.50
2022-08-03T03:07:50.472Z,17.50
2022-08-03T03:10:23.848Z,17.50
2022-08-03T03:12:52.990Z,17.40
2022-08-03T03:15:19.702Z,17.60
2022-08-03T03:17:48.086Z,17.40
2022-08-03T03:20:15.858Z,17.30
2022-08-03T03:22:58.878Z,17.30
2022-08-03T03:25:25.517Z,17.30
2022-08-03T03:27:52.370Z,17.30
2022-08-03T03:30:19.049Z,17.30
2022-08-03T03:32:45.698Z,17.20
2022-08-03T03:35:14.164Z,17.20
2022-08-03T03:37:40.873Z,17.20
2022-08-03T03:40:09.046Z,17.20
2022-08-03T03:42:35.892Z,17.20
2022-08-03T03:45:07.332Z,17.30
2022-08-03T03:47:35.409Z,17.20
2022-08-03T03:50:06.454Z,17.20
2022-08-03T03:52:34.067Z,17.10
2022-08-03T03:55:01.638Z,17.10
2022-08-03T03:57:29.161Z,17.30
2022-08-03T03:59:55.739Z,17.20
2022-08-03T04:02:22.409Z,16.10
2022-08-03T04:05:08.019Z,17.10
2022-08-03T04:08:14.640Z,17.10
2022-08-03T04:10:58.992Z,17.10
2022-08-03T04:13:30.035Z,17.20
2022-08-03T04:15:58.352Z,17.10
2022-08-03T04:18:27.932Z,17.10
2022-08-03T04:20:57.923Z,17.20
2022-08-03T04:23:27.638Z,17.20
2022-08-03T04:25:56.272Z,17.20
2022-08-03T04:28:31.347Z,17.20
2022-08-03T04:31:00.658Z,17.20
2022-08-03T04:33:29.317Z,17.20
2022-08-03T04:36:02.636Z,17.20
2022-08-03T04:38:32.693Z,17.20
2022-08-03T04:41:00.564Z,17.20
2022-08-03T04:43:29.333Z,17.40
2022-08-03T04:45:57.126Z,17.30
2022-08-03T04:48:24.268Z,17.30
2022-08-03T04:50:51.802Z,17.50
2022-08-03T04:53:19.507Z,17.40
2022-08-03T04:55:46.418Z,17.50
2022-08-03T04:58:13.095Z,17.60
2022-08-03T05:00:39.765Z,17.70
2022-08-03T05:03:23.803Z,17.80
2022-08-03T05:05:53.079Z,17.90
2022-08-03T05:08:29.166Z,18.10
2022-08-03T05:10:58.799Z,17.90
2022-08-03T05:13:26.257Z,18.40
2022-08-03T05:15:52.933Z,18.50
2022-08-03T05:18:19.561Z,18.70
2022-08-03T05:20:46.191Z,18.90
2022-08-03T05:23:12.922Z,19.00
2022-08-03T05:25:39.684Z,19.10
2022-08-03T05:28:12.802Z,19.20
2022-08-03T05:30:39.406Z,19.30
2022-08-03T05:33:06.034Z,19.40
2022-08-03T05:36:00.903Z,19.50
2022-08-03T05:38:28.952Z,19.60
2022-08-03T05:41:22.723Z,19.70
2022-08-03T05:43:47.774Z,19.90
2022-08-03T05:46:14.550Z,20.00
2022-08-03T05:48:42.172Z,20.10
2022-08-03T05:51:11.260Z,20.30
2022-08-03T05:53:38.794Z,20.40
2022-08-03T05:56:14.103Z,20.50
2022-08-03T05:58:47.258Z,20.60
2022-08-03T06:01:18.868Z,20.70
2022-08-03T06:03:46.200Z,20.80
2022-08-03T06:06:12.938Z,20.90
2022-08-03T06:08:40.554Z,20.90
2022-08-03T06:11:07.641Z,21.00
2022-08-03T06:13:34.496Z,21.00
2022-08-03T06:16:01.175Z,21.10
2022-08-03T06:18:28.197Z,21.20
2022-08-03T06:20:55.209Z,21.30
2022-08-03T06:23:22.163Z,21.40
2022-08-03T06:25:48.778Z,21.50
2022-08-03T06:28:42.535Z,21.70
2022-08-03T06:31:02.510Z,21.80
2022-08-03T06:34:30.808Z,22.00
2022-08-03T06:36:16.004Z,22.20
2022-08-03T06:38:42.752Z,22.40
2022-08-03T06:41:09.368Z,22.50
2022-08-03T06:43:37.647Z,22.60
2022-08-03T06:46:05.482Z,22.70
2022-08-03T06:48:32.454Z,22.90
2022-08-03T06:50:59.177Z,23.00
2022-08-03T06:53:26.014Z,23.10
2022-08-03T06:55:55.003Z,23.20
2022-08-03T06:58:22.120Z,23.40
2022-08-03T07:00:48.747Z,23.50
2022-08-03T07:03:15.426Z,23.60
2022-08-03T07:05:42.831Z,23.70
2022-08-03T07:08:09.970Z,23.90
2022-08-03T07:10:37.222Z,24.00
2022-08-03T07:13:04.738Z,24.10
2022-08-03T07:15:54.141Z,24.20
2022-08-03T07:18:29.087Z,24.30
2022-08-03T07:20:58.041Z,24.40
2022-08-03T07:23:25.391Z,24.50
2022-08-03T07:25:52.061Z,24.50
2022-08-03T07:28:18.680Z,24.60
2022-08-03T07:30:45.254Z,24.70
2022-08-03T07:33:11.968Z,24.80
2022-08-03T07:35:38.834Z,24.80
2022-08-03T07:38:05.483Z,25.00
2022-08-03T07:40:32.369Z,25.10
2022-08-03T07:42:59.849Z,25.20
2022-08-03T07:45:26.790Z,25.30
2022-08-03T07:47:54.440Z,25.40
2022-08-03T07:50:21.807Z,25.60
2022-08-03T07:52:53.386Z,25.70
2022-08-03T07:55:22.246Z,25.80
2022-08-03T07:58:09.910Z,25.90
2022-08-03T08:00:36.770Z,25.90
2022-08-03T08:03:03.984Z,26.10
2022-08-03T08:05:30.733Z,26.20
2022-08-03T08:07:57.302Z,26.30
2022-08-03T08:10:24.289Z,26.30
2022-08-03T08:12:50.999Z,26.50
2022-08-03T08:15:17.830Z,26.60
2022-08-03T08:17:53.446Z,26.70
2022-08-03T08:20:28.263Z,26.80
2022-08-03T08:22:57.089Z,26.90
2022-08-03T08:25:25.173Z,27.00
2022-08-03T08:28:29.875Z,27.00
2022-08-03T08:30:38.780Z,27.00
2022-08-03T08:33:05.346Z,27.10
2022-08-03T08:35:31.953Z,27.20
2022-08-03T08:38:04.022Z,27.30
2022-08-03T08:40:33.085Z,27.30
2022-08-03T08:42:59.800Z,27.30
2022-08-03T08:45:27.354Z,27.30
2022-08-03T08:48:01.067Z,27.40
2022-08-03T08:50:30.418Z,27.50
2022-08-03T08:53:01.870Z,27.60
2022-08-03T08:55:29.581Z,27.70
2022-08-03T08:58:20.799Z,27.70
2022-08-03T09:00:48.491Z,27.80
2022-08-03T09:03:22.625Z,27.80
2022-08-03T09:05:56.657Z,27.90
2022-08-03T09:08:23.309Z,27.90
2022-08-03T09:10:49.890Z,27.90
2022-08-03T09:13:16.532Z,27.90
2022-08-03T09:16:00.753Z,28.00
2022-08-03T09:18:33.035Z,28.10
2022-08-03T09:21:35.721Z,28.10
2022-08-03T09:24:13.134Z,28.20
2022-08-03T09:26:52.160Z,28.20
2022-08-03T09:29:20.986Z,28.20
2022-08-03T09:31:47.624Z,28.30
2022-08-03T09:34:16.832Z,28.30
2022-08-03T09:36:51.439Z,28.30
2022-08-03T09:39:40.715Z,28.30
2022-08-03T09:42:09.656Z,28.40
2022-08-03T09:44:38.030Z,28.40
2022-08-03T09:47:06.126Z,28.50
2022-08-03T09:49:33.123Z,28.50
2022-08-03T09:52:37.731Z,28.60
2022-08-03T09:56:01.799Z,28.70
2022-08-03T09:58:07.140Z,28.70
2022-08-03T10:00:54.029Z,28.80
2022-08-03T10:03:21.302Z,28.90
2022-08-03T10:05:47.958Z,29.00
2022-08-03T10:08:19.122Z,28.90
2022-08-03T10:10:49.156Z,29.00
2022-08-03T10:13:17.898Z,29.00
2022-08-03T10:16:23.290Z,29.40
2022-08-03T10:18:32.804Z,29.00
2022-08-03T10:21:07.716Z,29.10
2022-08-03T10:23:35.581Z,29.20
2022-08-03T10:26:04.684Z,29.20
2022-08-03T10:28:40.383Z,29.20
2022-08-03T10:31:12.971Z,29.20
2022-08-03T10:33:49.671Z,29.30
2022-08-03T10:36:19.598Z,29.30
2022-08-03T10:38:54.098Z,29.40
2022-08-03T10:41:22.289Z,29.80
2022-08-03T10:43:58.429Z,29.40
2022-08-03T10:46:27.255Z,29.40
2022-08-03T10:48:54.384Z,29.50
2022-08-03T10:51:21.590Z,29.60
2022-08-03T10:53:54.251Z,29.60
2022-08-03T10:56:52.414Z,29.60
2022-08-03T10:59:46.115Z,29.60
2022-08-03T11:02:14.437Z,29.60
2022-08-03T11:04:41.937Z,29.70
2022-08-03T11:07:20.445Z,29.70
2022-08-03T11:09:49.475Z,29.80
2022-08-03T11:12:32.632Z,29.90
2022-08-03T11:15:06.160Z,29.90
2022-08-03T11:17:46.903Z,29.90
2022-08-03T11:21:06.989Z,30.00
2022-08-03T11:24:02.910Z,30.10
2022-08-03T11:26:32.797Z,30.10
2022-08-03T11:29:31.619Z,30.10
2022-08-03T11:31:58.565Z,30.10
2022-08-03T11:34:25.653Z,30.20
2022-08-03T11:37:22.513Z,30.20
2022-08-03T11:39:52.930Z,30.20
2022-08-03T11:42:22.870Z,30.20
2022-08-03T11:44:54.155Z,30.30
2022-08-03T11:47:22.196Z,30.30
2022-08-03T11:49:51.059Z,30.30
2022-08-03T11:52:19.375Z,30.30
2022-08-03T11:54:57.173Z,30.30
2022-08-03T11:59:00.955Z,30.30
2022-08-03T12:00:21.695Z,30.40
2022-08-03T12:02:59.633Z,30.40
2022-08-03T12:05:39.722Z,30.50
2022-08-03T12:08:09.007Z,30.50
2022-08-03T12:10:37.257Z,30.40
2022-08-03T12:13:56.916Z,30.40
2022-08-03T12:15:55.147Z,30.50
2022-08-03T12:18:24.000Z,30.60
2022-08-03T12:20:51.982Z,30.60
2022-08-03T12:23:19.665Z,30.50
2022-08-03T12:25:47.569Z,30.60
2022-08-03T12:28:36.376Z,30.60
2022-08-03T12:31:07.520Z,30.70
2022-08-03T12:33:54.953Z,30.70
2022-08-03T12:36:21.730Z,30.70
2022-08-03T12:38:56.745Z,30.70
2022-08-03T12:41:35.309Z,30.80
2022-08-03T12:44:03.578Z,30.80
2022-08-03T12:46:42.711Z,30.80
2022-08-03T12:49:19.022Z,30.80
2022-08-03T12:52:07.707Z,30.80
2022-08-03T12:54:36.074Z,30.90
2022-08-03T12:57:16.358Z,30.80
2022-08-03T12:59:53.083Z,30.80
2022-08-03T13:02:26.367Z,30.80
2022-08-03T13:04:54.647Z,30.80
2022-08-03T13:07:22.322Z,30.80
2022-08-03T13:09:54.581Z,30.70
2022-08-03T13:12:26.917Z,30.70
2022-08-03T13:14:56.625Z,30.70
2022-08-03T13:17:23.727Z,30.70
2022-08-03T13:19:51.324Z,30.70
2022-08-03T13:22:23.669Z,30.80
2022-08-03T13:24:52.956Z,30.80
2022-08-03T13:28:01.661Z,30.80
2022-08-03T13:30:08.532Z,30.80
2022-08-03T13:32:35.867Z,30.80
2022-08-03T13:35:03.044Z,30.80
2022-08-03T13:37:32.066Z,30.90
2022-08-03T13:40:02.860Z,31.00
2022-08-03T13:42:31.436Z,31.00
2022-08-03T13:44:58.983Z,31.10
2022-08-03T13:47:26.771Z,31.10
2022-08-03T13:50:00.417Z,31.10
2022-08-03T13:52:35.298Z,31.10
2022-08-03T13:55:04.687Z,31.10
2022-08-03T13:58:19.018Z,31.00
2022-08-03T14:00:28.142Z,31.00
2022-08-03T14:03:06.489Z,31.00
2022-08-03T14:05:38.222Z,31.00
2022-08-03T14:08:06.755Z,31.00
2022-08-03T14:10:39.328Z,31.00
2022-08-03T14:13:06.525Z,31.50
2022-08-03T14:15:37.954Z,31.00
2022-08-03T14:18:07.044Z,31.10
2022-08-03T14:20:36.788Z,31.10
2022-08-03T14:23:15.061Z,31.10
2022-08-03T14:25:50.062Z,31.10
2022-08-03T14:28:18.443Z,31.00
2022-08-03T14:30:45.976Z,31.00
2022-08-03T14:33:12.659Z,31.10
2022-08-03T14:35:39.225Z,31.10
2022-08-03T14:38:05.908Z,31.20
2022-08-03T14:40:32.556Z,31.20
2022-08-03T14:42:59.139Z,31.30
2022-08-03T14:45:25.720Z,31.40
2022-08-03T14:50:34.339Z,31.40
2022-08-03T14:50:44.232Z,31.50
2022-08-03T14:53:13.643Z,31.50
2022-08-03T14:55:50.075Z,31.60
2022-08-03T14:58:19.808Z,31.60
2022-08-03T15:00:48.362Z,31.60
2022-08-03T15:03:16.717Z,31.60
2022-08-03T15:05:43.979Z,31.70
2022-08-03T15:08:10.565Z,31.70
2022-08-03T15:10:40.242Z,31.70
2022-08-03T15:13:07.383Z,31.70
2022-08-03T15:15:34.476Z,31.70
2022-08-03T15:18:01.070Z,31.70
2022-08-03T15:20:42.431Z,31.80
2022-08-03T15:23:09.542Z,31.80
2022-08-03T15:26:02.233Z,31.90
2022-08-03T15:28:22.903Z,31.90
2022-08-03T15:30:52.251Z,32.00
2022-08-03T15:33:18.882Z,32.00
2022-08-03T15:35:47.223Z,32.10
2022-08-03T15:38:13.802Z,32.10
2022-08-03T15:40:40.452Z,32.20
2022-08-03T15:43:07.154Z,32.20
2022-08-03T15:45:36.182Z,32.20
2022-08-03T15:48:03.874Z,32.20
2022-08-03T15:50:30.457Z,32.30
2022-08-03T15:52:57.186Z,32.40
2022-08-03T15:55:23.877Z,32.40
2022-08-03T15:59:09.157Z,32.40
2022-08-03T16:00:37.098Z,32.40
2022-08-03T16:03:03.725Z,32.40
2022-08-03T16:05:30.403Z,32.30
2022-08-03T16:08:02.979Z,32.30
2022-08-03T16:10:31.828Z,32.30
2022-08-03T16:13:01.187Z,32.30
2022-08-03T16:15:27.949Z,32.20
2022-08-03T16:17:54.836Z,32.20
2022-08-03T16:20:31.586Z,32.10
2022-08-03T16:23:11.009Z,32.10
2022-08-03T16:25:40.393Z,32.00
2022-08-03T16:28:13.052Z,31.90
2022-08-03T16:30:42.128Z,31.90
2022-08-03T16:33:09.090Z,31.70
2022-08-03T16:35:35.910Z,31.70
2022-08-03T16:38:07.844Z,31.70
2022-08-03T16:40:36.051Z,31.60
2022-08-03T16:43:18.594Z,31.60
2022-08-03T16:45:46.698Z,31.60
2022-08-03T16:48:13.786Z,31.60
2022-08-03T16:50:40.442Z,31.60
2022-08-03T16:53:09.028Z,31.60
2022-08-03T16:55:43.489Z,31.60
2022-08-03T16:58:24.300Z,31.50
2022-08-03T17:00:51.234Z,31.50
2022-08-03T17:03:24.273Z,31.40
2022-08-03T17:05:51.159Z,31.40
2022-08-03T17:08:26.528Z,31.40
2022-08-03T17:10:54.491Z,31.40
2022-08-03T17:13:21.662Z,31.40
2022-08-03T17:16:00.727Z,31.40
2022-08-03T17:18:32.278Z,31.40
2022-08-03T17:21:03.214Z,31.30
2022-08-03T17:23:51.593Z,31.30
2022-08-03T17:26:21.960Z,31.30
2022-08-03T17:28:56.427Z,31.30
2022-08-03T17:31:31.409Z,31.20
2022-08-03T17:34:01.159Z,31.20
2022-08-03T17:36:47.694Z,31.20
2022-08-03T17:39:16.824Z,31.20
2022-08-03T17:41:50.041Z,31.10
2022-08-03T17:44:41.246Z,31.10
2022-08-03T17:47:05.122Z,31.10
2022-08-03T17:49:40.213Z,31.10
2022-08-03T17:52:30.613Z,31.10
2022-08-03T17:55:55.586Z,30.10
2022-08-03T17:58:03.832Z,31.10
2022-08-03T18:00:51.569Z,31.10
2022-08-03T18:03:57.858Z,31.10
2022-08-03T18:06:28.578Z,31.00
2022-08-03T18:08:58.180Z,30.80
2022-08-03T18:11:35.349Z,30.80
2022-08-03T18:14:17.453Z,30.60
2022-08-03T18:16:46.548Z,30.50
2022-08-03T18:19:14.284Z,30.40
2022-08-03T18:22:02.830Z,30.30
2022-08-03T18:24:29.529Z,30.20
2022-08-03T18:26:58.808Z,30.10
2022-08-03T18:29:26.068Z,30.00
2022-08-03T18:32:03.231Z,29.90
2022-08-03T18:34:34.110Z,29.80
2022-08-03T18:37:04.331Z,29.70
2022-08-03T18:39:39.042Z,29.60
2022-08-03T18:42:19.432Z,29.50
2022-08-03T18:44:53.803Z,29.40
2022-08-03T18:47:51.581Z,29.30
2022-08-03T18:50:34.552Z,30.30
2022-08-03T18:54:02.382Z,29.10
2022-08-03T18:56:21.292Z,28.90
2022-08-03T18:58:53.634Z,28.80
2022-08-03T19:01:58.380Z,28.70
2022-08-03T19:04:25.574Z,28.60
2022-08-03T19:07:02.476Z,28.50
2022-08-03T19:09:40.451Z,28.30
2022-08-03T19:12:26.504Z,28.20
2022-08-03T19:15:00.675Z,28.10
2022-08-03T19:17:32.930Z,28.00
2022-08-03T19:20:08.413Z,27.90
2022-08-03T19:22:37.846Z,27.80
2022-08-03T19:25:06.726Z,27.70
2022-08-03T19:27:39.395Z,27.60
2022-08-03T19:30:19.931Z,27.50
2022-08-03T19:32:53.570Z,27.40
2022-08-03T19:35:51.186Z,27.30
2022-08-03T19:38:07.479Z,27.20
2022-08-03T19:40:36.922Z,27.10
2022-08-03T19:43:49.291Z,27.00
2022-08-03T19:46:23.306Z,26.90
2022-08-03T19:49:02.895Z,26.80
2022-08-03T19:52:01.452Z,26.70
2022-08-03T19:54:29.706Z,26.60
2022-08-03T19:57:00.028Z,26.50
2022-08-03T19:59:29.371Z,26.40
2022-08-03T20:01:56.506Z,26.50
2022-08-03T20:04:23.239Z,26.20
2022-08-03T20:06:52.197Z,26.20
2022-08-03T20:09:20.745Z,26.10
2022-08-03T20:11:48.141Z,26.00
2022-08-03T20:14:20.851Z,25.90
2022-08-03T20:16:53.588Z,25.80
2022-08-03T20:19:20.399Z,25.80
2022-08-03T20:21:49.919Z,25.60
2022-08-03T20:24:24.999Z,25.50
2022-08-03T20:26:57.885Z,25.50
2022-08-03T20:30:06.854Z,25.30
2022-08-03T20:32:35.314Z,25.30
2022-08-03T20:35:01.890Z,25.20
2022-08-03T20:37:30.512Z,25.10
2022-08-03T20:39:57.827Z,25.00
2022-08-03T20:42:24.645Z,24.20
2022-08-03T20:45:05.668Z,24.80
2022-08-03T20:47:50.903Z,24.80
2022-08-03T20:50:18.247Z,24.70
2022-08-03T20:52:49.801Z,24.60
2022-08-03T20:55:18.586Z,24.50
2022-08-03T20:57:51.685Z,24.40
2022-08-03T21:00:19.460Z,24.30
2022-08-03T21:02:48.784Z,24.20
2022-08-03T21:05:15.610Z,24.10
2022-08-03T21:08:05.438Z,24.10
2022-08-03T21:10:38.024Z,24.00
2022-08-03T21:13:18.834Z,24.00
2022-08-03T21:16:06.919Z,23.90
2022-08-03T21:19:02.717Z,23.90
2022-08-03T21:21:31.834Z,23.80
2022-08-03T21:24:00.469Z,23.70
2022-08-03T21:26:27.505Z,23.60
2022-08-03T21:28:56.686Z,23.50
2022-08-03T21:31:25.751Z,23.50
2022-08-03T21:34:05.000Z,23.40
2022-08-03T21:36:35.340Z,23.40
2022-08-03T21:39:04.106Z,23.40
2022-08-03T21:41:32.622Z,23.30
2022-08-03T21:44:00.477Z,23.30
2022-08-03T21:46:30.136Z,23.30
2022-08-03T21:50:05.757Z,23.20
2022-08-03T21:51:49.655Z,23.20
2022-08-03T21:54:17.776Z,23.10
2022-08-03T21:56:47.742Z,23.10
2022-08-03T21:59:19.353Z,23.00
2022-08-03T22:01:49.201Z,23.00
2022-08-03T22:04:50.204Z,22.90
2022-08-03T22:07:08.472Z,22.90
2022-08-03T22:09:36.367Z,22.80
2022-08-03T22:12:03.877Z,22.80
2022-08-03T22:14:32.673Z,22.70
2022-08-03T22:17:00.223Z,22.70
2022-08-03T22:19:26.896Z,22.60
2022-08-03T22:21:54.385Z,22.60
2022-08-03T22:24:23.920Z,22.60
2022-08-03T22:27:09.877Z,22.50
2022-08-03T22:29:39.015Z,22.50
2022-08-03T22:32:06.671Z,22.40
2022-08-03T22:34:33.566Z,22.30
2022-08-03T22:37:02.653Z,22.30
2022-08-03T22:39:30.280Z,22.30
2022-08-03T22:42:01.249Z,22.20
2022-08-03T22:44:28.311Z,22.10
2022-08-03T22:46:56.009Z,22.10
2022-08-03T22:49:22.857Z,22.10
2022-08-03T22:51:51.605Z,22.00
2022-08-03T22:54:18.550Z,22.00
2022-08-03T22:56:46.896Z,22.00
2022-08-03T22:59:40.955Z,21.90
2022-08-03T23:02:15.187Z,21.80
2022-08-03T23:04:54.836Z,21.90
2022-08-03T23:07:29.944Z,21.90
2022-08-03T23:09:57.729Z,21.80
2022-08-03T23:12:25.114Z,21.80
2022-08-03T23:14:57.505Z,21.80
2022-08-03T23:17:26.166Z,21.80
2022-08-03T23:19:53.868Z,21.70
2022-08-03T23:22:30.328Z,21.70
2022-08-03T23:24:59.065Z,21.70
2022-08-03T23:27:27.731Z,21.70
2022-08-03T23:29:57.593Z,21.70
2022-08-03T23:32:29.515Z,21.60
2022-08-03T23:35:18.479Z,21.60
2022-08-03T23:38:04.549Z,21.60
2022-08-03T23:40:33.858Z,21.60
2022-08-03T23:43:02.571Z,21.50
2022-08-03T23:45:31.747Z,21.50
2022-08-03T23:47:58.407Z,21.40
2022-08-03T23:50:28.400Z,21.40
2022-08-03T23:53:20.540Z,21.30
2022-08-03T23:56:08.602Z,21.30
2022-08-03T23:59:06.905Z,21.30
